Time;durP1;ratioP1;P1;durP2;ratioP2;P2;SDS_P1;SDS_P2;PMS_P1;PMS_P2;Temp;Humidity;BMP_temperature;BMP_pressure;BME280_temperature;BME280_humidity;BME280_pressure;Samples;Min_cycle;Max_cycle;Signal;HPM_P1;HPM_P2
2023/08/04 00:00:38;;;;;;;14.75;6.97;;;;;;;;;;5028774;28;20828;-59
2023/08/04 00:03:06;;;;;;;11.25;6.15;;;;;;;;;;5027011;28;20435;-58
2023/08/04 00:05:33;;;;;;;14.03;6.17;;;;;;;;;;5026001;28;20488;-55
2023/08/04 00:08:00;;;;;;;16.00;6.20;;;;;;;;;;5032005;28;20472;-58
2023/08/04 00:10:27;;;;;;;12.43;6.30;;;;;;;;;;5028978;28;20423;-56
2023/08/04 00:12:54;;;;;;;18.25;6.75;;;;;;;;;;5026341;28;20807;-56
2023/08/04 00:15:22;;;;;;;12.70;5.85;;;;;;;;;;5025142;28;20419;-57
2023/08/04 00:17:49;;;;;;;12.30;6.03;;;;;;;;;;5025209;28;20426;-55
2023/08/04 00:20:17;;;;;;;13.07;6.15;;;;;;;;;;5025532;28;20420;-58
2023/08/04 00:22:44;;;;;;;12.02;6.05;;;;;;;;;;5026624;28;20434;-57
2023/08/04 00:25:12;;;;;;;13.32;5.70;;;;;;;;;;5022919;28;20413;-59
2023/08/04 00:27:39;;;;;;;12.32;5.68;;;;;;;;;;5028891;28;20423;-59
2023/08/04 00:30:09;;;;;;;13.48;5.40;;;;;;;;;;5022511;28;20764;-58
2023/08/04 00:32:36;;;;;;;11.07;5.40;;;;;;;;;;5028822;28;20921;-58
2023/08/04 00:35:05;;;;;;;11.00;5.30;;;;;;;;;;5022110;28;20423;-58
2023/08/04 00:37:34;;;;;;;11.40;5.43;;;;;;;;;;5033099;28;20486;-56
2023/08/04 00:40:02;;;;;;;11.00;4.95;;;;;;;;;;5025723;28;20498;-55
2023/08/04 00:42:29;;;;;;;17.15;5.40;;;;;;;;;;5027023;28;20427;-56
2023/08/04 00:44:56;;;;;;;16.00;5.20;;;;;;;;;;5021217;28;20424;-59
2023/08/04 00:47:24;;;;;;;10.43;5.00;;;;;;;;;;5027525;28;20839;-57
2023/08/04 00:49:52;;;;;;;13.50;5.40;;;;;;;;;;5025000;28;20558;-56
2023/08/04 00:52:19;;;;;;;11.63;4.95;;;;;;;;;;5028516;28;20415;-57
2023/08/04 00:54:48;;;;;;;14.93;5.20;;;;;;;;;;5025591;28;20422;-58
2023/08/04 00:57:15;;;;;;;14.07;4.85;;;;;;;;;;5028348;28;20420;-59
2023/08/04 00:59:43;;;;;;;13.23;5.38;;;;;;;;;;5025231;28;20453;-59
2023/08/04 01:02:10;;;;;;;11.52;5.20;;;;;;;;;;5025294;28;20521;-58
2023/08/04 01:04:37;;;;;;;12.88;4.68;;;;;;;;;;5027486;28;20509;-58
2023/08/04 01:07:08;;;;;;;13.90;5.45;;;;;;;;;;5028304;28;20478;-58
2023/08/04 01:09:37;;;;;;;15.25;5.82;;;;;;;;;;5027006;28;20409;-59
2023/08/04 01:12:09;;;;;;;8.75;5.07;;;;;;;;;;5024394;28;20440;-57
2023/08/04 01:14:36;;;;;;;10.83;5.23;;;;;;;;;;5024028;28;20491;-59
2023/08/04 01:17:04;;;;;;;12.20;5.50;;;;;;;;;;5025532;28;20427;-58
2023/08/04 01:19:31;;;;;;;10.88;6.03;;;;;;;;;;5028969;28;20478;-59
2023/08/04 01:21:59;;;;;;;11.15;5.45;;;;;;;;;;5023954;28;20518;-55
2023/08/04 01:24:26;;;;;;;14.38;6.03;;;;;;;;;;5025479;28;21032;-58
2023/08/04 01:26:54;;;;;;;9.02;6.03;;;;;;;;;;5024276;28;20430;-59
2023/08/04 01:29:22;;;;;;;10.40;6.57;;;;;;;;;;5024433;28;20486;-58
2023/08/04 01:31:49;;;;;;;11.43;6.43;;;;;;;;;;5028207;28;20419;-58
2023/08/04 01:34:16;;;;;;;11.20;7.20;;;;;;;;;;5025506;28;20479;-58
2023/08/04 01:36:45;;;;;;;13.00;7.43;;;;;;;;;;5024956;28;20411;-57
2023/08/04 01:39:13;;;;;;;18.95;9.10;;;;;;;;;;5027356;28;20508;-59
2023/08/04 01:41:40;;;;;;;19.80;10.23;;;;;;;;;;5025064;28;20956;-59
2023/08/04 01:44:07;;;;;;;19.02;10.63;;;;;;;;;;5029531;28;20430;-59
2023/08/04 01:46:34;;;;;;;18.70;10.48;;;;;;;;;;5024729;28;20419;-58
2023/08/04 01:49:01;;;;;;;20.40;10.30;;;;;;;;;;5024425;28;20415;-58
2023/08/04 01:51:28;;;;;;;19.67;10.47;;;;;;;;;;5022604;28;20498;-59
2023/08/04 01:53:55;;;;;;;18.30;10.60;;;;;;;;;;5024974;28;20457;-58
2023/08/04 01:56:24;;;;;;;21.00;10.50;;;;;;;;;;5028903;28;20427;-58
2023/08/04 01:58:52;;;;;;;21.70;10.48;;;;;;;;;;5024733;28;20414;-57
2023/08/04 02:01:19;;;;;;;16.83;9.82;;;;;;;;;;5022563;28;20508;-58
2023/08/04 02:03:46;;;;;;;17.48;9.95;;;;;;;;;;5026288;28;20434;-58
2023/08/04 02:06:13;;;;;;;17.23;9.30;;;;;;;;;;5025386;28;20422;-56
2023/08/04 02:08:40;;;;;;;18.63;9.93;;;;;;;;;;5034432;28;20889;-57
2023/08/04 02:11:07;;;;;;;21.83;10.48;;;;;;;;;;5020659;28;20475;-58
2023/08/04 02:13:36;;;;;;;23.58;10.38;;;;;;;;;;5027433;28;20410;-58
2023/08/04 02:16:03;;;;;;;22.45;10.60;;;;;;;;;;5020322;28;20494;-56
2023/08/04 02:18:30;;;;;;;21.65;10.38;;;;;;;;;;5024394;28;20602;-58
2023/08/04 02:20:57;;;;;;;21.30;10.80;;;;;;;;;;5020541;28;20961;-57
2023/08/04 02:23:24;;;;;;;21.63;9.60;;;;;;;;;;5026474;28;20439;-57
2023/08/04 02:25:51;;;;;;;18.95;9.82;;;;;;;;;;5021123;28;20442;-56
2023/08/04 02:28:18;;;;;;;16.10;8.77;;;;;;;;;;5026989;28;20967;-58
2023/08/04 02:30:46;;;;;;;17.42;9.00;;;;;;;;;;5023990;28;20427;-58
2023/08/04 02:33:13;;;;;;;16.75;8.93;;;;;;;;;;5024361;28;20413;-56
2023/08/04 02:35:40;;;;;;;16.60;9.48;;;;;;;;;;5022632;28;20490;-56
2023/08/04 02:38:07;;;;;;;17.03;9.70;;;;;;;;;;5030502;28;20421;-58
2023/08/04 02:40:36;;;;;;;19.05;9.80;;;;;;;;;;5023955;28;20411;-56
2023/08/04 02:43:03;;;;;;;22.63;9.30;;;;;;;;;;5024259;28;20943;-57
2023/08/04 02:45:30;;;;;;;19.83;10.02;;;;;;;;;;5021742;28;20410;-58
2023/08/04 02:47:59;;;;;;;20.15;9.45;;;;;;;;;;5024113;28;20473;-55
2023/08/04 02:50:26;;;;;;;18.52;9.45;;;;;;;;;;5021937;28;20873;-57
2023/08/04 02:52:53;;;;;;;18.10;9.23;;;;;;;;;;5026360;28;20419;-58
2023/08/04 02:55:20;;;;;;;23.48;9.18;;;;;;;;;;5021015;28;20449;-57
2023/08/04 02:57:46;;;;;;;22.83;9.13;;;;;;;;;;5025199;28;20411;-56
2023/08/04 03:00:14;;;;;;;20.33;9.52;;;;;;;;;;5023135;28;20771;-56
2023/08/04 03:02:41;;;;;;;17.35;9.30;;;;;;;;;;5025506;28;20438;-58
2023/08/04 03:05:09;;;;;;;23.30;10.00;;;;;;;;;;5021703;28;20449;-57
2023/08/04 03:07:36;;;;;;;23.50;9.53;;;;;;;;;;5033540;28;20415;-58
2023/08/04 03:10:03;;;;;;;26.02;10.73;;;;;;;;;;5032392;28;20417;-59
2023/08/04 03:12:30;;;;;;;21.52;10.50;;;;;;;;;;5022425;28;20410;-58
2023/08/04 03:14:57;;;;;;;17.95;10.43;;;;;;;;;;5025672;28;20419;-57
2023/08/04 03:17:24;;;;;;;24.48;11.27;;;;;;;;;;5027062;28;20865;-57
2023/08/04 03:19:51;;;;;;;21.70;10.27;;;;;;;;;;5029466;28;20423;-56
2023/08/04 03:22:19;;;;;;;18.52;9.65;;;;;;;;;;5026928;28;20538;-58
2023/08/04 03:24:46;;;;;;;21.58;10.00;;;;;;;;;;5028562;28;20415;-58
2023/08/04 03:27:13;;;;;;;18.67;9.90;;;;;;;;;;5029300;28;20422;-58
2023/08/04 03:29:40;;;;;;;24.52;9.48;;;;;;;;;;5028142;28;20415;-58
2023/08/04 03:32:07;;;;;;;19.55;9.50;;;;;;;;;;5025371;28;20413;-57
2023/08/04 03:34:34;;;;;;;15.73;9.25;;;;;;;;;;5027835;28;20442;-54
2023/08/04 03:37:01;;;;;;;24.92;10.20;;;;;;;;;;5028851;28;20423;-57
2023/08/04 03:39:30;;;;;;;25.15;9.05;;;;;;;;;;5030939;28;20421;-57
2023/08/04 03:41:57;;;;;;;21.10;9.88;;;;;;;;;;5025429;28;20423;-57
2023/08/04 03:44:24;;;;;;;23.40;10.20;;;;;;;;;;5026605;28;20444;-56
2023/08/04 03:46:51;;;;;;;24.42;10.48;;;;;;;;;;5027527;28;20418;-57
2023/08/04 03:49:18;;;;;;;23.65;10.77;;;;;;;;;;5029023;28;20424;-56
2023/08/04 03:51:45;;;;;;;23.17;10.00;;;;;;;;;;5026024;28;20419;-57
2023/08/04 03:54:12;;;;;;;23.63;10.35;;;;;;;;;;5027148;28;20469;-56
2023/08/04 03:56:40;;;;;;;21.38;10.13;;;;;;;;;;5026142;28;20415;-56
2023/08/04 03:59:08;;;;;;;22.70;10.07;;;;;;;;;;5027280;28;20837;-57
2023/08/04 04:01:35;;;;;;;21.40;9.88;;;;;;;;;;5026444;28;20415;-58
2023/08/04 04:04:02;;;;;;;24.52;10.77;;;;;;;;;;5025510;28;21163;-57
2023/08/04 04:06:29;;;;;;;22.67;11.20;;;;;;;;;;5025828;28;20469;-58
2023/08/04 04:08:56;;;;;;;22.85;11.75;;;;;;;;;;5031824;28;20477;-58
2023/08/04 04:11:23;;;;;;;27.83;11.63;;;;;;;;;;5027472;28;20484;-58
2023/08/04 04:13:51;;;;;;;28.13;11.55;;;;;;;;;;5030098;28;20465;-57
2023/08/04 04:16:18;;;;;;;29.52;12.02;;;;;;;;;;5023117;28;20416;-58
2023/08/04 04:18:45;;;;;;;29.13;12.27;;;;;;;;;;5030143;28;20445;-58
2023/08/04 04:21:12;;;;;;;22.40;12.20;;;;;;;;;;5022675;28;20429;-57
2023/08/04 04:23:39;;;;;;;26.83;12.43;;;;;;;;;;5028915;28;20779;-59
2023/08/04 04:26:07;;;;;;;26.42;13.07;;;;;;;;;;5023675;28;20455;-58
2023/08/04 04:28:34;;;;;;;32.10;12.13;;;;;;;;;;5028325;28;20520;-57
2023/08/04 04:31:04;;;;;;;25.20;12.40;;;;;;;;;;5029505;28;20471;-58
2023/08/04 04:33:31;;;;;;;27.17;12.55;;;;;;;;;;5028593;28;20414;-57
2023/08/04 04:35:58;;;;;;;29.90;13.40;;;;;;;;;;5021985;28;20475;-58
2023/08/04 04:38:28;;;;;;;25.83;12.50;;;;;;;;;;5039151;28;20487;-58
2023/08/04 04:40:58;;;;;;;29.67;13.37;;;;;;;;;;5028316;28;20811;-57
2023/08/04 04:43:25;;;;;;;26.63;13.20;;;;;;;;;;5026630;28;20428;-58
2023/08/04 04:45:52;;;;;;;27.88;13.38;;;;;;;;;;5024977;28;20422;-58
2023/08/04 04:48:21;;;;;;;32.00;13.88;;;;;;;;;;5037260;28;20448;-60
2023/08/04 04:50:49;;;;;;;29.83;13.05;;;;;;;;;;5027717;28;20814;-60
2023/08/04 04:53:16;;;;;;;27.53;12.60;;;;;;;;;;5031834;28;20417;-60
2023/08/04 04:55:43;;;;;;;28.13;13.40;;;;;;;;;;5024052;28;20423;-59
2023/08/04 04:58:12;;;;;;;26.65;13.05;;;;;;;;;;5024894;28;20860;-60
2023/08/04 05:00:39;;;;;;;23.75;13.73;;;;;;;;;;5023933;28;20802;-58
2023/08/04 05:03:08;;;;;;;29.60;13.35;;;;;;;;;;5024665;28;20430;-60
2023/08/04 05:05:37;;;;;;;28.25;13.85;;;;;;;;;;5030157;28;20429;-58
2023/08/04 05:08:05;;;;;;;27.97;12.70;;;;;;;;;;5032826;28;20429;-54
2023/08/04 05:10:32;;;;;;;29.95;13.70;;;;;;;;;;5034450;28;20815;-56
2023/08/04 05:12:59;;;;;;;27.58;13.50;;;;;;;;;;5027594;28;20414;-56
2023/08/04 05:15:26;;;;;;;28.00;14.15;;;;;;;;;;5024622;28;20830;-57
2023/08/04 05:17:53;;;;;;;26.93;13.20;;;;;;;;;;5027642;28;20453;-55
2023/08/04 05:20:20;;;;;;;30.20;13.52;;;;;;;;;;5028154;28;20454;-57
2023/08/04 05:22:48;;;;;;;21.47;13.27;;;;;;;;;;5025008;28;20419;-55
2023/08/04 05:25:15;;;;;;;27.35;13.25;;;;;;;;;;5022304;28;20418;-56
2023/08/04 05:27:42;;;;;;;30.17;14.13;;;;;;;;;;5024911;28;20422;-56
2023/08/04 05:30:10;;;;;;;27.15;14.02;;;;;;;;;;5031184;28;20423;-59
2023/08/04 05:32:37;;;;;;;29.83;14.25;;;;;;;;;;5030577;28;20468;-54
2023/08/04 05:35:04;;;;;;;27.58;15.15;;;;;;;;;;5034876;28;20442;-57
2023/08/04 05:37:31;;;;;;;31.98;15.95;;;;;;;;;;5029883;28;20452;-58
2023/08/04 05:39:59;;;;;;;29.85;16.40;;;;;;;;;;5028333;28;20905;-57
2023/08/04 05:42:26;;;;;;;29.25;16.40;;;;;;;;;;5023718;28;20425;-60
2023/08/04 05:44:53;;;;;;;28.93;16.47;;;;;;;;;;5025468;28;20456;-59
2023/08/04 05:47:25;;;;;;;36.35;17.25;;;;;;;;;;5025311;28;20435;-58
2023/08/04 05:49:52;;;;;;;32.20;17.02;;;;;;;;;;5031820;28;20415;-58
2023/08/04 05:52:19;;;;;;;32.30;17.57;;;;;;;;;;5023899;28;20930;-58
2023/08/04 05:54:46;;;;;;;32.33;17.85;;;;;;;;;;5026217;28;20785;-59
2023/08/04 05:57:14;;;;;;;33.88;16.75;;;;;;;;;;5020396;28;20467;-59
2023/08/04 05:59:41;;;;;;;27.85;16.75;;;;;;;;;;5027274;28;20825;-54
2023/08/04 06:02:09;;;;;;;31.27;17.27;;;;;;;;;;5020552;28;20416;-58
2023/08/04 06:04:36;;;;;;;25.58;16.27;;;;;;;;;;5021411;28;20522;-56
2023/08/04 06:07:03;;;;;;;35.15;19.60;;;;;;;;;;5021818;28;20761;-57
2023/08/04 06:09:30;;;;;;;29.65;18.13;;;;;;;;;;5038009;28;20419;-56
2023/08/04 06:11:57;;;;;;;32.13;17.15;;;;;;;;;;5022105;28;20418;-57
2023/08/04 06:14:25;;;;;;;29.37;16.80;;;;;;;;;;5025166;28;20421;-59
2023/08/04 06:16:52;;;;;;;30.42;17.30;;;;;;;;;;5026707;28;20423;-59
2023/08/04 06:19:19;;;;;;;26.77;15.77;;;;;;;;;;5028798;28;20768;-61
2023/08/04 06:21:46;;;;;;;26.45;16.45;;;;;;;;;;5022820;28;20422;-57
2023/08/04 06:24:26;;;;;;;29.90;17.40;;;;;;;;;;5024453;28;20505;-59
2023/08/04 06:26:53;;;;;;;29.75;17.45;;;;;;;;;;5019631;28;21528;-58
2023/08/04 06:29:20;;;;;;;29.50;18.90;;;;;;;;;;5032414;28;20485;-57
2023/08/04 06:31:48;;;;;;;29.77;18.77;;;;;;;;;;5026125;28;20471;-58
2023/08/04 06:34:15;;;;;;;34.03;19.45;;;;;;;;;;5023761;28;20413;-57
2023/08/04 06:36:46;;;;;;;31.60;18.65;;;;;;;;;;5025590;28;20513;-60
2023/08/04 06:39:13;;;;;;;28.95;18.23;;;;;;;;;;5029552;28;20477;-58
2023/08/04 06:41:40;;;;;;;35.20;19.87;;;;;;;;;;5024955;28;20497;-58
2023/08/04 06:44:07;;;;;;;31.58;19.08;;;;;;;;;;5027489;28;20435;-58
2023/08/04 06:46:34;;;;;;;33.65;20.80;;;;;;;;;;5034504;28;20475;-56
2023/08/04 06:49:02;;;;;;;31.67;19.05;;;;;;;;;;5034423;28;20949;-56
2023/08/04 06:51:29;;;;;;;34.35;19.75;;;;;;;;;;5035968;28;20472;-54
2023/08/04 06:53:56;;;;;;;34.00;18.92;;;;;;;;;;5029584;28;20430;-56
2023/08/04 06:56:23;;;;;;;32.60;19.88;;;;;;;;;;5026938;28;20423;-57
2023/08/04 06:58:50;;;;;;;33.80;20.75;;;;;;;;;;5028112;28;20422;-55
2023/08/04 07:01:17;;;;;;;35.17;22.40;;;;;;;;;;5026087;28;20492;-58
2023/08/04 07:03:47;;;;;;;37.57;22.00;;;;;;;;;;5032628;28;20431;-58
2023/08/04 07:06:15;;;;;;;31.92;20.52;;;;;;;;;;5025852;28;20419;-60
2023/08/04 07:08:42;;;;;;;31.42;19.95;;;;;;;;;;5032579;28;20414;-57
2023/08/04 07:11:14;;;;;;;38.33;20.97;;;;;;;;;;5030712;28;20905;-54
2023/08/04 07:13:41;;;;;;;31.70;19.70;;;;;;;;;;5028182;28;20414;-56
2023/08/04 07:16:08;;;;;;;28.40;19.17;;;;;;;;;;5026645;28;20410;-58
2023/08/04 07:18:35;;;;;;;33.85;19.98;;;;;;;;;;5027268;28;20437;-54
2023/08/04 07:21:05;;;;;;;26.37;19.13;;;;;;;;;;5027759;28;20422;-58
2023/08/04 07:23:34;;;;;;;29.05;19.58;;;;;;;;;;5028605;28;20430;-58
2023/08/04 07:26:01;;;;;;;29.85;17.13;;;;;;;;;;5027283;28;20415;-57
2023/08/04 07:28:28;;;;;;;27.70;17.27;;;;;;;;;;5022698;28;20478;-55
2023/08/04 07:30:55;;;;;;;26.57;17.47;;;;;;;;;;5029029;28;20788;-54
2023/08/04 07:33:23;;;;;;;29.83;18.63;;;;;;;;;;5022342;28;20422;-55
2023/08/04 07:35:53;;;;;;;30.60;19.08;;;;;;;;;;5027606;28;20431;-55
2023/08/04 07:38:20;;;;;;;27.67;19.42;;;;;;;;;;5028182;28;20412;-57
2023/08/04 07:40:48;;;;;;;31.70;19.13;;;;;;;;;;5032207;28;20411;-57
2023/08/04 07:43:15;;;;;;;33.25;19.50;;;;;;;;;;5022917;28;20475;-55
2023/08/04 07:45:43;;;;;;;28.02;18.88;;;;;;;;;;5028913;28;20427;-57
2023/08/04 07:48:10;;;;;;;27.73;17.33;;;;;;;;;;5024140;28;20445;-58
2023/08/04 07:50:37;;;;;;;30.00;17.65;;;;;;;;;;5033258;28;20884;-59
2023/08/04 07:53:04;;;;;;;31.20;17.88;;;;;;;;;;5019008;28;20427;-57
2023/08/04 07:55:33;;;;;;;30.02;18.52;;;;;;;;;;5021048;28;20820;-58
2023/08/04 07:58:01;;;;;;;30.80;18.57;;;;;;;;;;5024916;28;20431;-58
2023/08/04 08:00:28;;;;;;;29.75;18.90;;;;;;;;;;5024713;28;21162;-59
2023/08/04 08:02:55;;;;;;;33.23;20.40;;;;;;;;;;5026878;28;20415;-61
2023/08/04 08:05:23;;;;;;;31.80;18.60;;;;;;;;;;5023630;28;20484;-60
2023/08/04 08:07:50;;;;;;;28.55;18.63;;;;;;;;;;5030759;28;20409;-60
2023/08/04 08:10:18;;;;;;;27.73;17.88;;;;;;;;;;5030030;28;20471;-58
2023/08/04 08:12:45;;;;;;;28.85;18.00;;;;;;;;;;5028299;28;20912;-58
2023/08/04 08:15:13;;;;;;;25.00;14.83;;;;;;;;;;5026767;28;20533;-57
2023/08/04 08:17:40;;;;;;;24.63;15.37;;;;;;;;;;5023446;28;20964;-57
2023/08/04 08:20:08;;;;;;;21.98;14.35;;;;;;;;;;5029061;28;20427;-65
2023/08/04 08:22:35;;;;;;;20.17;14.10;;;;;;;;;;5027872;28;20411;-67
2023/08/04 08:25:02;;;;;;;18.60;12.80;;;;;;;;;;5024529;28;20485;-65
2023/08/04 08:27:29;;;;;;;22.80;12.70;;;;;;;;;;5022446;28;20974;-65
2023/08/04 08:29:56;;;;;;;20.65;14.23;;;;;;;;;;5034806;28;20477;-64
2023/08/04 08:32:25;;;;;;;18.25;10.05;;;;;;;;;;5027472;28;20545;-68
2023/08/04 08:34:52;;;;;;;19.67;11.05;;;;;;;;;;5028693;28;20755;-65
2023/08/04 08:37:19;;;;;;;18.50;11.98;;;;;;;;;;5029847;28;20411;-65
2023/08/04 08:39:46;;;;;;;16.67;11.15;;;;;;;;;;5030640;28;20414;-68
2023/08/04 08:42:13;;;;;;;16.13;8.50;;;;;;;;;;5024248;28;20430;-68
2023/08/04 08:44:40;;;;;;;17.52;9.20;;;;;;;;;;5023049;28;20457;-69
2023/08/04 08:47:07;;;;;;;14.80;8.98;;;;;;;;;;5031833;28;20801;-67
2023/08/04 08:49:39;;;;;;;16.10;9.18;;;;;;;;;;5028486;28;21179;-65
2023/08/04 08:52:08;;;;;;;16.93;9.27;;;;;;;;;;5023439;28;20936;-65
2023/08/04 08:54:36;;;;;;;13.02;8.73;;;;;;;;;;5024425;28;20502;-65
2023/08/04 08:57:03;;;;;;;13.35;7.90;;;;;;;;;;5025994;28;20499;-64
2023/08/04 08:59:31;;;;;;;13.53;7.50;;;;;;;;;;5024357;28;20409;-67
2023/08/04 09:01:58;;;;;;;13.15;7.20;;;;;;;;;;5026254;28;20816;-67
2023/08/04 09:04:25;;;;;;;11.35;6.13;;;;;;;;;;5022567;28;20433;-67
2023/08/04 09:06:56;;;;;;;7.65;4.93;;;;;;;;;;5028857;28;20421;-65
2023/08/04 09:09:23;;;;;;;7.68;4.28;;;;;;;;;;5031173;28;20814;-67
2023/08/04 09:11:51;;;;;;;6.85;4.85;;;;;;;;;;5031544;28;20910;-63
2023/08/04 09:14:18;;;;;;;11.25;4.75;;;;;;;;;;5025575;28;20485;-64
2023/08/04 09:16:45;;;;;;;8.18;4.65;;;;;;;;;;5024653;28;20415;-65
2023/08/04 09:19:12;;;;;;;10.57;4.37;;;;;;;;;;5022236;28;20496;-64
2023/08/04 09:21:39;;;;;;;4.97;3.72;;;;;;;;;;5027744;28;20419;-65
2023/08/04 09:24:10;;;;;;;8.10;4.00;;;;;;;;;;5024868;28;20472;-65
2023/08/04 09:26:42;;;;;;;10.38;4.93;;;;;;;;;;5026894;28;20498;-68
2023/08/04 09:29:09;;;;;;;7.30;3.53;;;;;;;;;;5024514;28;20490;-66
2023/08/04 09:31:36;;;;;;;8.60;3.42;;;;;;;;;;5018915;28;21781;-66
2023/08/04 09:34:04;;;;;;;5.65;3.00;;;;;;;;;;5020677;28;20656;-68
2023/08/04 09:36:31;;;;;;;3.88;2.83;;;;;;;;;;5024100;28;20757;-64
2023/08/04 09:39:03;;;;;;;5.50;3.20;;;;;;;;;;5025968;28;20424;-64
2023/08/04 09:41:33;;;;;;;5.45;3.03;;;;;;;;;;5020981;28;20509;-64
2023/08/04 09:44:04;;;;;;;5.57;3.33;;;;;;;;;;5024340;28;20981;-64
2023/08/04 09:46:31;;;;;;;6.47;3.30;;;;;;;;;;5022453;28;20409;-64
2023/08/04 09:48:59;;;;;;;6.50;2.80;;;;;;;;;;5022632;28;20438;-64
2023/08/04 09:51:26;;;;;;;8.63;2.90;;;;;;;;;;5018797;28;20465;-66
2023/08/04 09:53:55;;;;;;;4.85;2.65;;;;;;;;;;5032811;28;20421;-66
2023/08/04 09:56:23;;;;;;;6.35;2.90;;;;;;;;;;5027096;28;20603;-63
2023/08/04 09:58:52;;;;;;;4.57;2.53;;;;;;;;;;5030435;28;20421;-66
2023/08/04 10:01:19;;;;;;;3.75;2.47;;;;;;;;;;5026897;28;20446;-66
2023/08/04 10:03:50;;;;;;;5.28;2.67;;;;;;;;;;5026515;28;20423;-66
2023/08/04 10:06:17;;;;;;;4.18;2.72;;;;;;;;;;5028049;28;20430;-66
2023/08/04 10:08:44;;;;;;;6.03;2.50;;;;;;;;;;5030421;28;20477;-64
2023/08/04 10:11:11;;;;;;;4.43;2.58;;;;;;;;;;5027172;28;20411;-63
2023/08/04 10:13:39;;;;;;;5.00;2.65;;;;;;;;;;5021506;28;20842;-63
2023/08/04 10:16:08;;;;;;;4.80;2.43;;;;;;;;;;5024785;28;20415;-60
2023/08/04 10:18:48;;;;;;;4.47;2.47;;;;;;;;;;5025082;28;20468;-59
2023/08/04 10:21:15;;;;;;;5.45;2.47;;;;;;;;;;5023798;28;20407;-63
2023/08/04 10:23:42;;;;;;;4.05;2.20;;;;;;;;;;5028261;28;20416;-63
2023/08/04 10:26:11;;;;;;;3.42;2.20;;;;;;;;;;5018811;28;20432;-63
2023/08/04 10:28:59;;;;;;;4.88;2.30;;;;;;;;;;5026164;28;20844;-59
2023/08/04 10:31:43;;;;;;;4.75;2.17;;;;;;;;;;5023402;28;20499;-60
2023/08/04 10:34:17;;;;;;;5.82;2.25;;;;;;;;;;5026562;28;20828;-61
2023/08/04 10:37:01;;;;;;;4.40;2.10;;;;;;;;;;5028267;28;20410;-61
2023/08/04 10:39:29;;;;;;;5.60;2.27;;;;;;;;;;5037220;28;20415;-63
2023/08/04 10:41:56;;;;;;;4.47;2.30;;;;;;;;;;5026406;28;20531;-63
2023/08/04 10:44:25;;;;;;;4.55;2.10;;;;;;;;;;5034216;28;20500;-64
2023/08/04 10:46:59;;;;;;;3.05;1.92;;;;;;;;;;5041146;28;21057;-64
2023/08/04 10:49:26;;;;;;;4.40;1.80;;;;;;;;;;5044511;28;20961;-64
2023/08/04 10:51:54;;;;;;;3.20;1.77;;;;;;;;;;5029000;28;20425;-64
2023/08/04 10:54:21;;;;;;;4.07;1.90;;;;;;;;;;5025841;28;20511;-63
2023/08/04 10:56:48;;;;;;;4.50;1.90;;;;;;;;;;5021955;28;20581;-63
2023/08/04 10:59:15;;;;;;;4.22;2.10;;;;;;;;;;5023492;28;20415;-64
2023/08/04 11:01:42;;;;;;;5.00;2.00;;;;;;;;;;5020537;28;20468;-64
2023/08/04 11:04:10;;;;;;;2.65;1.70;;;;;;;;;;5017592;28;20424;-64
2023/08/04 11:06:38;;;;;;;3.60;1.70;;;;;;;;;;5028408;28;20434;-64
2023/08/04 11:09:05;;;;;;;2.60;1.42;;;;;;;;;;5025332;28;20411;-64
2023/08/04 11:11:32;;;;;;;2.65;1.52;;;;;;;;;;5023967;28;20424;-64
2023/08/04 11:13:59;;;;;;;2.25;1.50;;;;;;;;;;5021783;28;20862;-64
2023/08/04 11:16:30;;;;;;;2.50;1.50;;;;;;;;;;5019578;28;20420;-64
2023/08/04 11:18:57;;;;;;;3.72;1.67;;;;;;;;;;5021607;28;20861;-61
2023/08/04 11:21:25;;;;;;;1.90;1.70;;;;;;;;;;5016739;28;20420;-61
2023/08/04 11:23:52;;;;;;;3.17;2.00;;;;;;;;;;5018805;28;20412;-60
2023/08/04 11:26:19;;;;;;;3.00;2.03;;;;;;;;;;5017373;28;20500;-63
2023/08/04 11:28:46;;;;;;;3.38;1.80;;;;;;;;;;5027294;28;20481;-63
2023/08/04 11:31:13;;;;;;;3.25;2.20;;;;;;;;;;5034634;28;20415;-63
2023/08/04 11:33:45;;;;;;;2.80;2.25;;;;;;;;;;5030336;28;20479;-59
2023/08/04 11:36:12;;;;;;;5.18;3.10;;;;;;;;;;5023686;28;20497;-61
2023/08/04 11:38:40;;;;;;;6.50;3.55;;;;;;;;;;5025885;28;20417;-61
2023/08/04 11:41:09;;;;;;;5.18;3.92;;;;;;;;;;5034433;28;20425;-61
2023/08/04 11:43:36;;;;;;;5.65;3.92;;;;;;;;;;5033541;28;20437;-61
2023/08/04 11:46:06;;;;;;;5.35;4.05;;;;;;;;;;5024468;28;20518;-59
2023/08/04 11:48:34;;;;;;;7.32;3.38;;;;;;;;;;5027457;28;20422;-58
2023/08/04 11:51:01;;;;;;;4.32;2.33;;;;;;;;;;5029505;28;20419;-60
2023/08/04 11:53:28;;;;;;;4.03;2.30;;;;;;;;;;5027628;28;20412;-61
2023/08/04 11:55:57;;;;;;;3.33;1.70;;;;;;;;;;5024725;28;20477;-62
2023/08/04 11:58:31;;;;;;;2.63;1.67;;;;;;;;;;5031926;28;20434;-60
2023/08/04 12:00:58;;;;;;;3.33;1.70;;;;;;;;;;5033131;28;20425;-58
2023/08/04 12:03:25;;;;;;;2.85;1.50;;;;;;;;;;5026531;28;20474;-61
2023/08/04 12:05:53;;;;;;;3.53;1.38;;;;;;;;;;5039158;28;20431;-60
2023/08/04 12:08:20;;;;;;;2.85;1.40;;;;;;;;;;5026272;28;20419;-59
2023/08/04 12:11:01;;;;;;;2.75;1.42;;;;;;;;;;5028172;28;20423;-61
2023/08/04 12:13:35;;;;;;;1.93;1.30;;;;;;;;;;5025824;28;20515;-60
2023/08/04 12:16:03;;;;;;;2.92;1.58;;;;;;;;;;5034838;28;20498;-60
2023/08/04 12:18:34;;;;;;;2.25;1.27;;;;;;;;;;5036746;28;21233;-59
2023/08/04 12:21:01;;;;;;;2.53;1.63;;;;;;;;;;5029116;28;20813;-61
2023/08/04 12:23:28;;;;;;;2.57;1.90;;;;;;;;;;5040170;28;20576;-60
2023/08/04 12:25:55;;;;;;;3.50;1.73;;;;;;;;;;5031861;28;20427;-60
2023/08/04 12:28:23;;;;;;;4.68;2.00;;;;;;;;;;5027226;28;20837;-60
2023/08/04 12:30:52;;;;;;;2.95;2.08;;;;;;;;;;5029818;28;20442;-61
2023/08/04 12:33:19;;;;;;;4.28;2.08;;;;;;;;;;5034356;28;20423;-60
2023/08/04 12:35:47;;;;;;;4.75;2.03;;;;;;;;;;5031311;28;20504;-59
2023/08/04 12:38:16;;;;;;;2.80;1.55;;;;;;;;;;5038978;28;20430;-60
2023/08/04 12:40:43;;;;;;;2.88;1.90;;;;;;;;;;5031063;28;20433;-60
2023/08/04 12:43:10;;;;;;;3.33;1.85;;;;;;;;;;5028989;28;20419;-61
2023/08/04 12:45:37;;;;;;;5.25;2.22;;;;;;;;;;5036852;28;20979;-61
2023/08/04 12:48:07;;;;;;;4.93;2.20;;;;;;;;;;5040043;28;20458;-61
2023/08/04 12:50:34;;;;;;;3.45;2.47;;;;;;;;;;5031864;28;20416;-60
2023/08/04 12:53:01;;;;;;;4.13;2.80;;;;;;;;;;5036524;28;20413;-61
2023/08/04 12:55:28;;;;;;;4.75;3.20;;;;;;;;;;5025593;28;20830;-61
2023/08/04 12:57:55;;;;;;;4.20;3.10;;;;;;;;;;5028073;28;20433;-61
2023/08/04 13:00:22;;;;;;;6.20;3.88;;;;;;;;;;5030461;28;20829;-61
2023/08/04 13:02:49;;;;;;;7.25;3.80;;;;;;;;;;5030830;28;20481;-62
2023/08/04 13:05:17;;;;;;;6.70;3.78;;;;;;;;;;5027260;28;20419;-63
2023/08/04 13:07:44;;;;;;;5.55;3.47;;;;;;;;;;5023688;28;20431;-62
2023/08/04 13:10:11;;;;;;;5.65;3.28;;;;;;;;;;5026120;28;20433;-62
2023/08/04 13:12:38;;;;;;;5.00;3.13;;;;;;;;;;5020911;28;20470;-60
2023/08/04 13:15:06;;;;;;;6.03;3.00;;;;;;;;;;5021389;28;20423;-68
2023/08/04 13:17:33;;;;;;;4.45;2.80;;;;;;;;;;5018129;28;20412;-66
2023/08/04 13:20:00;;;;;;;4.15;2.72;;;;;;;;;;5027884;28;20498;-66
2023/08/04 13:22:28;;;;;;;4.68;3.20;;;;;;;;;;5022996;28;21024;-66
2023/08/04 13:24:55;;;;;;;6.97;3.40;;;;;;;;;;5023518;28;20479;-65
2023/08/04 13:27:22;;;;;;;6.35;3.40;;;;;;;;;;5024295;28;20897;-66
2023/08/04 13:29:50;;;;;;;5.28;3.22;;;;;;;;;;5023049;28;20468;-65
2023/08/04 13:32:17;;;;;;;7.30;4.30;;;;;;;;;;5023663;28;20417;-65
2023/08/04 13:34:43;;;;;;;7.72;4.97;;;;;;;;;;5022291;28;20472;-64
2023/08/04 13:37:10;;;;;;;8.32;5.65;;;;;;;;;;5027189;28;20415;-61
2023/08/04 13:39:39;;;;;;;11.43;6.35;;;;;;;;;;5022351;28;20923;-61
2023/08/04 13:42:06;;;;;;;10.45;6.55;;;;;;;;;;5027172;28;20423;-60
2023/08/04 13:44:33;;;;;;;11.00;6.63;;;;;;;;;;5025849;28;20440;-61
2023/08/04 13:47:00;;;;;;;14.73;7.00;;;;;;;;;;5031020;28;20427;-60
2023/08/04 13:49:27;;;;;;;10.77;7.32;;;;;;;;;;5025632;28;20493;-60
2023/08/04 13:51:54;;;;;;;10.38;7.82;;;;;;;;;;5026799;28;20411;-60
2023/08/04 13:54:21;;;;;;;11.40;7.80;;;;;;;;;;5023228;28;20435;-59
2023/08/04 13:56:49;;;;;;;10.38;7.32;;;;;;;;;;5025872;28;20411;-62
2023/08/04 13:59:16;;;;;;;9.63;6.03;;;;;;;;;;5017885;28;20417;-62
2023/08/04 14:01:43;;;;;;;6.88;4.63;;;;;;;;;;5023004;28;20472;-60
2023/08/04 14:04:10;;;;;;;6.43;4.68;;;;;;;;;;5019424;28;20824;-59
2023/08/04 14:06:37;;;;;;;6.75;4.80;;;;;;;;;;5025087;28;20479;-60
2023/08/04 14:09:04;;;;;;;5.88;4.30;;;;;;;;;;5022662;28;20411;-60
2023/08/04 14:11:31;;;;;;;4.77;3.60;;;;;;;;;;5024257;28;20996;-59
2023/08/04 14:14:00;;;;;;;5.68;3.13;;;;;;;;;;5025669;28;20413;-61
2023/08/04 14:16:27;;;;;;;6.55;3.17;;;;;;;;;;5028095;28;20450;-60
2023/08/04 14:18:54;;;;;;;5.57;3.13;;;;;;;;;;5028428;28;20418;-60
2023/08/04 14:21:21;;;;;;;4.78;3.20;;;;;;;;;;5024161;28;20423;-60
2023/08/04 14:23:48;;;;;;;4.10;3.17;;;;;;;;;;5021590;28;20905;-67
2023/08/04 14:26:15;;;;;;;4.93;3.25;;;;;;;;;;5022722;28;20513;-65
2023/08/04 14:28:42;;;;;;;4.50;3.03;;;;;;;;;;5020973;28;20425;-65
2023/08/04 14:31:10;;;;;;;3.88;3.00;;;;;;;;;;5019032;28;20473;-65